Time;durP1;ratioP1;P1;durP2;ratioP2;P2;SDS_P1;SDS_P2;PMS_P1;PMS_P2;Temp;Humidity;BMP_temperature;BMP_pressure;BME280_temperature;BME280_humidity;BME280_pressure;Samples;Min_cycle;Max_cycle;Signal;HPM_P1;HPM_P2
2023/06/17 00:01:05;;;;;;;4.30;2.17;;;;;;;-143.21;98.85;71451.56;5052155;28;20198;-90
2023/06/17 00:03:32;;;;;;;2.10;1.50;;;;;;;-143.21;98.75;71455.53;5051281;28;20201;-84
2023/06/17 00:05:59;;;;;;;3.50;1.80;;;;;;;-143.21;99.14;71449.56;5054562;28;20209;-90
2023/06/17 00:08:26;;;;;;;6.53;1.60;;;;;;;-143.21;98.49;71451.56;5052126;28;20218;-91
2023/06/17 00:10:53;;;;;;;7.80;2.00;;;;;;;-143.21;98.78;71473.38;5052312;28;20198;-92
2023/06/17 00:13:22;;;;;;;2.10;1.90;;;;;;;-143.21;99.82;71483.28;5052730;28;20208;-92
2023/06/17 00:15:56;;;;;;;5.03;2.10;;;;;;;-143.21;100.00;71483.28;5056554;28;20197;-93
2023/06/17 00:18:24;;;;;;;4.40;1.80;;;;;;;-143.21;100.00;71475.34;5062162;28;20205;-92
2023/06/17 00:20:53;;;;;;;3.20;1.80;;;;;;;-143.21;100.00;71479.31;5067942;28;20202;-91
2023/06/17 00:23:20;;;;;;;1.90;1.80;;;;;;;-143.21;99.77;71479.31;5064973;28;20614;-91
2023/06/17 00:25:47;;;;;;;2.27;2.07;;;;;;;-143.21;100.00;71497.16;5059093;28;20206;-92
2023/06/17 00:28:14;;;;;;;5.90;2.20;;;;;;;-143.21;100.00;71505.09;5055177;28;20603;-92
2023/06/17 00:30:41;;;;;;;4.70;2.40;;;;;;;-143.21;100.00;71509.06;5051699;28;20202;-92
2023/06/17 00:33:11;;;;;;;2.83;2.40;;;;;;;-143.21;100.00;71505.09;5051387;28;20201;-92
2023/06/17 00:35:38;;;;;;;3.20;2.47;;;;;;;-143.21;100.00;71511.03;5051420;28;20201;-90
2023/06/17 00:38:05;;;;;;;5.50;2.70;;;;;;;-143.21;100.00;71513.03;5051040;28;20657;-90
2023/06/17 00:40:32;;;;;;;7.73;2.80;;;;;;;-143.21;100.00;71524.91;5051199;28;20242;-93
2023/06/17 00:42:59;;;;;;;3.00;2.70;;;;;;;-143.21;100.00;71526.91;5050147;28;20743;-89
2023/06/17 00:45:26;;;;;;;4.57;2.60;;;;;;;-143.21;100.00;71511.03;5052338;28;20198;-90
2023/06/17 00:47:53;;;;;;;4.40;2.50;;;;;;;-143.21;100.00;71505.09;5053694;28;20225;-89
2023/06/17 00:50:22;;;;;;;3.97;2.90;;;;;;;-143.21;100.00;71509.06;5053826;28;20213;-89
2023/06/17 00:52:52;;;;;;;3.93;2.77;;;;;;;-143.21;100.00;71516.97;5053633;28;20233;-89
2023/06/17 00:55:20;;;;;;;3.10;2.80;;;;;;;-143.21;100.00;71518.97;5053770;28;20269;-89
2023/06/17 00:57:47;;;;;;;3.87;2.97;;;;;;;-143.21;100.00;71520.94;5053873;28;20194;-89
2023/06/17 01:00:15;;;;;;;3.10;2.80;;;;;;;-143.21;100.00;71520.94;5053026;28;20214;-89
2023/06/17 01:02:44;;;;;;;5.10;3.00;;;;;;;-143.21;100.00;71526.91;5056432;28;20281;-89
2023/06/17 01:05:14;;;;;;;4.37;3.07;;;;;;;-143.21;100.00;71526.91;5057187;28;20738;-91
2023/06/17 01:08:09;;;;;;;3.77;3.30;;;;;;;-143.21;100.00;71509.06;5057417;28;20297;-93
2023/06/17 01:10:45;;;;;;;4.20;3.53;;;;;;;-143.21;100.00;71524.91;5054918;28;20206;-92
2023/06/17 01:13:15;;;;;;;6.10;3.10;;;;;;;-143.21;100.00;71513.03;5054450;28;20206;-92
2023/06/17 01:15:43;;;;;;;7.83;3.23;;;;;;;-143.21;100.00;71528.88;5055008;28;20201;-93
2023/06/17 01:18:17;;;;;;;3.53;3.23;;;;;;;-143.21;100.00;71542.75;5059061;28;20206;-93
2023/06/17 01:20:44;;;;;;;3.33;3.03;;;;;;;-143.21;100.00;71550.69;5054707;28;20217;-94
2023/06/17 01:23:16;;;;;;;7.23;3.70;;;;;;;-143.21;100.00;71544.75;5058273;28;20212;-93
2023/06/17 01:25:45;;;;;;;3.80;3.40;;;;;;;-143.21;100.00;71554.66;5055044;28;20201;-93
2023/06/17 01:28:16;;;;;;;3.43;3.13;;;;;;;-143.21;100.00;71542.75;5054976;28;20228;-95
2023/06/17 01:30:43;;;;;;;3.60;3.27;;;;;;;-143.21;100.00;71534.81;5054166;28;20210;-90
2023/06/17 01:33:12;;;;;;;4.50;3.70;;;;;;;-143.21;100.00;71526.91;5052837;28;20673;-88
2023/06/17 01:35:46;;;;;;;5.00;3.43;;;;;;;-143.21;100.00;71507.06;5057254;28;20289;-90
2023/06/17 01:38:20;;;;;;;8.07;3.80;;;;;;;-143.21;100.00;71507.06;5052681;28;20198;-89
2023/06/17 01:40:53;;;;;;;4.20;3.40;;;;;;;-143.21;100.00;71501.13;5054652;28;20210;-88
2023/06/17 01:43:21;;;;;;;4.13;3.43;;;;;;;-143.21;100.00;71503.09;5062911;28;20209;-91
2023/06/17 01:45:49;;;;;;;4.03;3.30;;;;;;;-143.21;100.00;71497.16;5076942;28;20206;-89
2023/06/17 01:48:16;;;;;;;3.60;3.30;;;;;;;-143.21;100.00;71497.16;5060084;28;20233;-90
2023/06/17 01:50:42;;;;;;;4.07;3.50;;;;;;;-143.21;100.00;71485.25;5054412;28;20581;-89
2023/06/17 01:53:09;;;;;;;6.03;3.27;;;;;;;-143.21;100.00;71479.31;5053765;28;20210;-89
2023/06/17 01:55:36;;;;;;;3.60;3.30;;;;;;;-143.21;100.00;71479.31;5053275;28;20198;-90
2023/06/17 01:58:05;;;;;;;4.37;3.47;;;;;;;-143.21;100.00;71491.22;5053329;28;20236;-90
2023/06/17 02:00:31;;;;;;;4.07;3.57;;;;;;;-143.21;100.00;71497.16;5053130;28;20205;-90
2023/06/17 02:02:59;;;;;;;5.90;3.40;;;;;;;-143.21;100.00;71497.16;5052951;28;20205;-89
2023/06/17 02:05:26;;;;;;;5.67;3.10;;;;;;;-143.21;100.00;71495.19;5052903;28;20210;-88
2023/06/17 02:07:53;;;;;;;4.23;2.97;;;;;;;-143.21;100.00;71507.06;5053626;28;20221;-88
2023/06/17 02:10:20;;;;;;;7.00;3.03;;;;;;;-143.21;100.00;71499.13;5057316;28;20344;-88
2023/06/17 02:12:47;;;;;;;3.77;2.90;;;;;;;-143.21;100.00;71505.09;5053440;28;20213;-88
2023/06/17 02:15:15;;;;;;;6.77;3.10;;;;;;;-143.21;100.00;71505.09;5060955;28;20210;-88
2023/06/17 02:17:42;;;;;;;5.03;3.50;;;;;;;-143.21;100.00;71507.06;5052902;28;20210;-88
2023/06/17 02:20:11;;;;;;;4.23;3.00;;;;;;;-143.21;100.00;71516.97;5052728;28;20653;-89
2023/06/17 02:22:38;;;;;;;3.30;3.00;;;;;;;-143.21;100.00;71507.06;5057289;28;20297;-89
2023/06/17 02:25:06;;;;;;;3.43;2.97;;;;;;;-143.21;100.00;71513.03;5053248;28;20202;-90
2023/06/17 02:27:33;;;;;;;4.80;3.00;;;;;;;-143.21;100.00;71518.97;5053759;28;20645;-90
2023/06/17 02:30:01;;;;;;;3.27;2.97;;;;;;;-143.21;100.00;71522.94;5054062;28;20206;-91
2023/06/17 02:32:29;;;;;;;4.60;3.10;;;;;;;-143.21;100.00;71515.00;5053462;28;20269;-93
2023/06/17 02:34:57;;;;;;;3.10;2.73;;;;;;;-143.21;100.00;71509.06;5053480;28;20735;-92
2023/06/17 02:37:24;;;;;;;3.37;2.60;;;;;;;-143.21;100.00;71513.03;5052977;28;20281;-95
2023/06/17 02:39:51;;;;;;;4.60;2.50;;;;;;;-143.21;100.00;71530.88;5053709;28;20640;-94
2023/06/17 02:42:18;;;;;;;4.00;2.40;;;;;;;-143.21;100.00;71524.91;5053598;28;20205;-94
2023/06/17 02:44:45;;;;;;;3.33;2.40;;;;;;;-143.21;100.00;71538.78;5053343;28;20197;-93
2023/06/17 02:47:13;;;;;;;3.27;2.23;;;;;;;-143.21;100.00;71530.88;5052785;28;20202;-93
2023/06/17 02:49:41;;;;;;;2.80;2.60;;;;;;;-143.21;100.00;71528.88;5053186;28;20194;-94
2023/06/17 02:52:08;;;;;;;3.40;2.50;;;;;;;-143.21;100.00;71538.78;5053808;28;20194;-93
2023/06/17 02:54:35;;;;;;;3.37;2.60;;;;;;;-143.21;100.00;71536.81;5054106;28;20212;-95
2023/06/17 02:57:02;;;;;;;4.90;3.20;;;;;;;-143.21;100.00;71550.69;5053919;28;20212;-94
2023/06/17 02:59:31;;;;;;;3.80;2.73;;;;;;;-143.21;100.00;71556.63;5053898;28;20212;-95
2023/06/17 03:01:58;;;;;;;2.93;2.67;;;;;;;-143.21;100.00;71580.44;5053619;28;20210;-92
2023/06/17 03:04:25;;;;;;;4.17;3.03;;;;;;;-143.21;100.00;71578.44;5062816;28;20288;-93
2023/06/17 03:06:53;;;;;;;3.73;2.77;;;;;;;-143.21;100.00;71576.47;5075365;28;20780;-93
2023/06/17 03:09:20;;;;;;;7.10;3.20;;;;;;;-143.21;100.00;71590.34;5071394;28;20225;-93
2023/06/17 03:11:47;;;;;;;5.10;3.70;;;;;;;-143.21;100.00;71590.34;5071656;28;20210;-93
2023/06/17 03:14:19;;;;;;;3.57;3.13;;;;;;;-143.21;100.00;71586.38;5053282;28;20305;-93
2023/06/17 03:16:46;;;;;;;4.20;3.00;;;;;;;-143.21;100.00;71572.50;5053549;28;20206;-92
2023/06/17 03:19:13;;;;;;;3.53;3.10;;;;;;;-143.21;100.00;71574.47;5053380;28;20222;-91
2023/06/17 03:21:42;;;;;;;3.57;3.27;;;;;;;-143.21;100.00;71558.63;5053065;28;20583;-90
2023/06/17 03:24:10;;;;;;;5.70;3.87;;;;;;;-143.21;100.00;71564.56;5054384;28;20206;-90
2023/06/17 03:26:38;;;;;;;5.43;3.57;;;;;;;-143.21;100.00;71558.63;5051477;28;20256;-91
2023/06/17 03:29:05;;;;;;;5.60;3.60;;;;;;;-143.21;100.00;71552.69;5050770;28;20226;-92
2023/06/17 03:31:32;;;;;;;5.50;3.47;;;;;;;-143.21;100.00;71564.56;5051187;28;20217;-92
2023/06/17 03:33:59;;;;;;;3.97;3.20;;;;;;;-143.21;100.00;71564.56;5047799;28;20294;-93
2023/06/17 03:36:28;;;;;;;4.57;3.37;;;;;;;-143.21;100.00;71556.63;5055158;28;20280;-93
2023/06/17 03:38:55;;;;;;;4.40;3.50;;;;;;;-143.21;100.00;71556.63;5053271;28;20242;-92
2023/06/17 03:41:24;;;;;;;3.90;3.23;;;;;;;-143.21;100.00;71570.53;5052607;28;20623;-93
2023/06/17 03:43:51;;;;;;;3.67;3.23;;;;;;;-143.21;100.00;71576.47;5051938;28;20210;-92
2023/06/17 03:46:19;;;;;;;3.40;3.10;;;;;;;-143.21;100.00;71570.53;5052441;28;20213;-92
2023/06/17 03:48:47;;;;;;;6.87;3.57;;;;;;;-143.21;100.00;71572.50;5061547;28;20256;-90
2023/06/17 03:51:14;;;;;;;4.87;3.00;;;;;;;-143.21;100.00;71564.56;5076799;28;20616;-92
2023/06/17 03:53:41;;;;;;;3.20;2.90;;;;;;;-143.21;100.00;71568.53;5064497;28;20194;-92
2023/06/17 03:56:08;;;;;;;6.00;3.37;;;;;;;-143.21;100.00;71566.56;5052498;28;20205;-92
2023/06/17 03:58:37;;;;;;;4.47;3.10;;;;;;;-143.21;100.00;71576.47;5045407;28;20649;-93
2023/06/17 04:01:06;;;;;;;3.23;2.80;;;;;;;-143.21;100.00;71568.53;5052281;28;20669;-91
2023/06/17 04:03:34;;;;;;;2.83;2.60;;;;;;;-143.21;100.00;71572.50;5051791;28;20198;-91
2023/06/17 04:06:01;;;;;;;5.37;2.70;;;;;;;-143.21;100.00;71572.50;5048470;28;20209;-92
2023/06/17 04:08:32;;;;;;;3.07;2.77;;;;;;;-143.21;100.00;71570.53;5051650;28;20316;-93
2023/06/17 04:11:00;;;;;;;2.63;2.43;;;;;;;-143.21;100.00;71568.53;5056987;28;20216;-93
2023/06/17 04:13:27;;;;;;;3.30;2.60;;;;;;;-143.21;100.00;71560.59;5052951;28;20216;-93
2023/06/17 04:15:56;;;;;;;3.77;2.40;;;;;;;-143.21;100.00;71564.56;5052348;28;20265;-94
2023/06/17 04:18:24;;;;;;;2.93;2.63;;;;;;;-143.21;100.00;71560.59;5053553;28;20198;-92
2023/06/17 04:20:56;;;;;;;3.73;2.50;;;;;;;-143.21;100.00;71550.69;5062027;28;20186;-92
2023/06/17 04:23:23;;;;;;;3.73;2.60;;;;;;;-143.21;100.00;71550.69;5062413;28;20232;-91
2023/06/17 04:25:50;;;;;;;2.17;2.03;;;;;;;-143.21;100.00;71550.69;5061660;28;20217;-94
2023/06/17 04:28:18;;;;;;;2.80;2.20;;;;;;;-143.21;100.00;71550.69;5066368;28;20205;-91
2023/06/17 04:30:47;;;;;;;2.20;2.00;;;;;;;-143.21;100.00;71554.66;5072579;28;20677;-90
2023/06/17 04:33:16;;;;;;;2.20;2.00;;;;;;;-143.21;100.00;71556.63;5074152;28;20198;-91
2023/06/17 04:35:44;;;;;;;2.50;1.90;;;;;;;-143.21;100.00;71558.63;5081750;28;20284;-93
2023/06/17 04:38:12;;;;;;;1.87;1.70;;;;;;;-143.21;100.00;71558.63;5057344;28;20222;-94
2023/06/17 04:40:42;;;;;;;1.77;1.60;;;;;;;-143.21;100.00;71566.56;5055912;28;20593;-94
2023/06/17 04:43:09;;;;;;;2.23;1.80;;;;;;;-143.21;100.00;71560.59;5052428;28;20194;-91
2023/06/17 04:45:36;;;;;;;2.00;1.80;;;;;;;-143.21;100.00;71558.63;5050907;28;20206;-91
2023/06/17 04:48:05;;;;;;;2.00;1.80;;;;;;;-143.21;100.00;71556.63;5050666;28;20208;-92
2023/06/17 04:50:35;;;;;;;1.73;1.43;;;;;;;-143.21;100.00;71548.72;5054286;28;20214;-91
2023/06/17 04:53:03;;;;;;;1.60;1.50;;;;;;;-143.21;100.00;71550.69;5053820;28;20205;-91
2023/06/17 04:55:35;;;;;;;1.70;1.60;;;;;;;-143.21;100.00;71550.69;5051445;28;20293;-91
2023/06/17 04:58:02;;;;;;;2.90;1.97;;;;;;;-143.21;100.00;71542.75;5050943;28;20206;-91
2023/06/17 05:00:29;;;;;;;2.63;1.80;;;;;;;-143.21;100.00;71544.75;5053623;28;20213;-90
2023/06/17 05:02:56;;;;;;;2.10;1.90;;;;;;;-143.21;100.00;71554.66;5049248;28;20225;-89
2023/06/17 05:05:23;;;;;;;3.10;2.13;;;;;;;-143.21;100.00;71566.56;5049093;28;20210;-88
2023/06/17 05:07:51;;;;;;;2.43;1.73;;;;;;;-143.21;100.00;71572.50;5049230;28;20667;-89
2023/06/17 05:10:18;;;;;;;2.60;1.73;;;;;;;-143.21;100.00;71570.53;5049013;28;20685;-89
2023/06/17 05:12:45;;;;;;;3.27;1.70;;;;;;;-143.21;100.00;71582.41;5049735;28;20213;-89
2023/06/17 05:15:13;;;;;;;1.70;1.60;;;;;;;-143.21;100.00;71590.34;5049439;28;20194;-89
2023/06/17 05:17:39;;;;;;;1.70;1.60;;;;;;;-143.21;100.00;71598.28;5053713;28;20202;-90
2023/06/17 05:20:07;;;;;;;1.60;1.50;;;;;;;-143.21;100.00;71610.16;5050031;28;20677;-90
2023/06/17 05:22:34;;;;;;;2.00;1.57;;;;;;;-143.21;100.00;71624.06;5046502;28;20201;-88
2023/06/17 05:25:03;;;;;;;1.57;1.47;;;;;;;-143.21;100.00;71618.09;5046323;28;20213;-89
2023/06/17 05:27:30;;;;;;;1.40;1.30;;;;;;;-143.21;100.00;71620.09;5048888;28;20194;-89
2023/06/17 05:29:56;;;;;;;1.57;1.40;;;;;;;-143.21;100.00;71631.97;5052696;28;20226;-89
2023/06/17 05:32:24;;;;;;;3.03;1.63;;;;;;;-143.21;100.00;71635.94;5051264;28;20221;-90
2023/06/17 05:34:51;;;;;;;2.37;1.70;;;;;;;-143.21;100.00;71641.91;5052539;28;20249;-90
2023/06/17 05:37:18;;;;;;;1.67;1.57;;;;;;;-143.21;100.00;71635.94;5052748;28;20198;-89
2023/06/17 05:39:45;;;;;;;2.17;1.90;;;;;;;-143.21;100.00;71630.00;5052655;28;20568;-88
2023/06/17 05:42:13;;;;;;;3.80;2.00;;;;;;;-143.21;100.00;71643.88;5052845;28;20566;-89
2023/06/17 05:44:40;;;;;;;2.33;1.60;;;;;;;-143.21;100.00;71631.97;5052775;28;20680;-87
2023/06/17 05:47:07;;;;;;;3.53;1.60;;;;;;;-143.21;100.00;71624.06;5052517;28;20987;-87
2023/06/17 05:49:34;;;;;;;3.93;2.60;;;;;;;-143.21;100.00;71614.13;5055751;28;20232;-87
2023/06/17 05:52:01;;;;;;;8.63;5.33;;;;;;;-143.21;100.00;71624.06;5051395;28;20213;-89
2023/06/17 05:54:28;;;;;;;7.23;4.50;;;;;;;-143.21;100.00;71610.16;5063396;28;20209;-88
2023/06/17 05:56:55;;;;;;;7.20;3.97;;;;;;;-143.21;100.00;71600.25;5085717;28;20218;-87
2023/06/17 05:59:24;;;;;;;5.77;4.37;;;;;;;-143.21;100.00;71592.31;5071086;28;20213;-90
2023/06/17 06:01:51;;;;;;;4.80;3.50;;;;;;;-143.21;100.00;71592.31;5054452;28;20209;-89
2023/06/17 06:04:18;;;;;;;5.83;3.93;;;;;;;-143.21;100.00;71582.41;5061632;28;20198;-90
2023/06/17 06:06:45;;;;;;;4.90;3.13;;;;;;;-143.21;100.00;71578.44;5057320;28;20600;-89
2023/06/17 06:09:12;;;;;;;6.70;2.73;;;;;;;-143.21;100.00;71588.38;5059703;28;20230;-90
2023/06/17 06:11:39;;;;;;;2.77;2.20;;;;;;;-143.21;100.00;71592.31;5056624;28;20216;-91
2023/06/17 06:14:06;;;;;;;6.70;2.93;;;;;;;-143.21;100.00;71582.41;5052146;28;20232;-87
2023/06/17 06:16:34;;;;;;;2.13;1.93;;;;;;;-143.21;100.00;71604.22;5051961;28;20209;-87
2023/06/17 06:19:01;;;;;;;2.33;2.13;;;;;;;-143.21;100.00;71610.16;5048826;28;20206;-88
2023/06/17 06:21:28;;;;;;;5.00;2.03;;;;;;;-143.21;100.00;71610.16;5051995;28;21507;-89
2023/06/17 06:23:55;;;;;;;2.40;1.70;;;;;;;-143.21;100.00;71612.16;5052332;28;20218;-88
2023/06/17 06:26:21;;;;;;;1.87;1.67;;;;;;;-143.21;100.00;71616.13;5051967;28;20237;-88
2023/06/17 06:28:48;;;;;;;1.90;1.80;;;;;;;-143.21;100.00;71620.09;5056054;28;20221;-89
2023/06/17 06:31:15;;;;;;;2.87;2.13;;;;;;;-143.21;100.00;71618.09;5054615;28;20206;-84
2023/06/17 06:33:43;;;;;;;2.50;2.17;;;;;;;-143.21;100.00;71610.16;5051422;28;20245;-83
2023/06/17 06:36:10;;;;;;;2.23;2.03;;;;;;;-143.21;100.00;71602.25;5054669;28;20629;-82
2023/06/17 06:38:37;;;;;;;2.60;1.70;;;;;;;-143.21;100.00;71596.28;5054872;28;20205;-80
2023/06/17 06:41:04;;;;;;;3.87;2.20;;;;;;;-143.21;100.00;71602.25;5052407;28;20301;-82
2023/06/17 06:43:30;;;;;;;2.20;2.00;;;;;;;-143.21;100.00;71594.31;5054002;28;20209;-83
2023/06/17 06:45:57;;;;;;;2.43;1.70;;;;;;;-143.21;100.00;71594.31;5054794;28;20213;-84
2023/06/17 06:48:24;;;;;;;3.53;2.63;;;;;;;-143.21;100.00;71598.28;5056925;28;20217;-84
2023/06/17 06:50:52;;;;;;;3.00;2.70;;;;;;;-143.21;100.00;71596.28;5055521;28;20232;-86
2023/06/17 06:53:23;;;;;;;3.73;2.73;;;;;;;-143.21;100.00;71588.38;5052193;28;20221;-85
2023/06/17 06:55:50;;;;;;;4.00;3.10;;;;;;;-143.21;100.00;71584.41;5055914;28;20686;-76
2023/06/17 06:58:17;;;;;;;2.40;2.20;;;;;;;-143.21;100.00;71586.38;5051398;28;20223;-77
2023/06/17 07:00:44;;;;;;;2.20;1.70;;;;;;;-143.21;100.00;71590.34;5050286;28;20213;-77
2023/06/17 07:03:11;;;;;;;2.10;1.87;;;;;;;-143.21;100.00;71592.31;5050695;28;20205;-77
2023/06/17 07:05:38;;;;;;;2.33;2.10;;;;;;;-143.21;100.00;71584.41;5056571;28;20272;-78
2023/06/17 07:08:06;;;;;;;2.57;2.07;;;;;;;-143.21;100.00;71578.44;5057207;28;20283;-79
2023/06/17 07:10:39;;;;;;;3.83;2.10;;;;;;;-143.21;100.00;71572.50;5050130;28;20221;-78
2023/06/17 07:13:05;;;;;;;2.20;2.00;;;;;;;-143.21;100.00;71570.53;5053288;28;20289;-78
2023/06/17 07:15:32;;;;;;;4.90;2.47;;;;;;;-143.21;100.00;71558.63;5057184;28;20201;-78
2023/06/17 07:17:59;;;;;;;2.60;2.30;;;;;;;-143.21;100.00;71542.75;5059486;28;20292;-78
2023/06/17 07:20:26;;;;;;;3.30;2.20;;;;;;;-143.21;100.00;71530.88;5048778;28;20208;-78
2023/06/17 07:22:53;;;;;;;6.07;2.63;;;;;;;-143.21;100.00;71528.88;5048935;28;20210;-78
2023/06/17 07:25:21;;;;;;;2.30;2.10;;;;;;;-143.21;100.00;71524.91;5052601;28;20245;-78
2023/06/17 07:27:48;;;;;;;1.97;1.70;;;;;;;-143.21;100.00;71534.81;5049036;28;20205;-78
2023/06/17 07:30:15;;;;;;;4.00;2.40;;;;;;;-143.21;100.00;71546.72;5049386;28;20308;-78
2023/06/17 07:32:41;;;;;;;3.87;1.60;;;;;;;-143.21;100.00;71538.78;5058544;28;20208;-78
2023/06/17 07:35:09;;;;;;;2.60;1.97;;;;;;;-143.21;100.00;71526.91;5051825;28;20226;-78
2023/06/17 07:37:36;;;;;;;2.77;2.37;;;;;;;-143.21;100.00;71532.84;5055710;28;20210;-78
2023/06/17 07:40:05;;;;;;;1.70;1.60;;;;;;;-143.21;100.00;71515.00;5048580;28;20245;-77
2023/06/17 07:42:33;;;;;;;3.67;2.20;;;;;;;-143.21;100.00;71516.97;5052209;28;20699;-77
2023/06/17 07:45:00;;;;;;;2.83;2.00;;;;;;;-143.21;100.00;71522.94;5052514;28;20664;-77
2023/06/17 07:47:26;;;;;;;1.70;1.40;;;;;;;-143.21;100.00;71532.84;5054821;28;20209;-78
2023/06/17 07:49:53;;;;;;;2.17;1.80;;;;;;;-143.21;100.00;71528.88;5056151;28;20236;-78
2023/06/17 07:52:20;;;;;;;1.90;1.60;;;;;;;-143.21;100.00;71526.91;5057118;28;20201;-77
2023/06/17 07:54:47;;;;;;;6.47;2.10;;;;;;;-143.21;100.00;71513.03;5049133;28;20301;-78
2023/06/17 07:57:14;;;;;;;1.80;1.70;;;;;;;-143.21;100.00;71497.16;5052568;28;20216;-77
2023/06/17 07:59:43;;;;;;;2.07;1.83;;;;;;;-143.21;100.00;71485.25;5056280;28;20201;-78
2023/06/17 08:02:10;;;;;;;2.57;1.60;;;;;;;-143.21;100.00;71473.38;5055552;28;20202;-76
2023/06/17 08:04:37;;;;;;;2.70;1.90;;;;;;;-143.21;100.00;71451.56;5058334;28;20279;-79
2023/06/17 08:07:05;;;;;;;5.17;2.50;;;;;;;-143.21;100.00;71445.59;5052888;28;20619;-78
2023/06/17 08:09:32;;;;;;;3.83;2.10;;;;;;;-143.21;100.00;71445.59;5055656;28;20228;-78
2023/06/17 08:11:58;;;;;;;1.67;1.57;;;;;;;-143.21;100.00;71439.66;5059139;28;20210;-78
2023/06/17 08:14:25;;;;;;;2.17;1.83;;;;;;;-143.21;100.00;71431.72;5052073;28;20282;-78
2023/06/17 08:16:53;;;;;;;2.00;1.30;;;;;;;-143.21;100.00;71441.63;5054435;28;20609;-78
2023/06/17 08:19:22;;;;;;;1.63;1.43;;;;;;;-143.21;100.00;71441.63;5056348;28;20206;-76
2023/06/17 08:21:50;;;;;;;1.70;1.50;;;;;;;-143.21;100.00;71429.75;5051799;28;20198;-78
2023/06/17 08:24:17;;;;;;;1.60;1.50;;;;;;;-143.21;100.00;71447.59;5051385;28;20197;-77
2023/06/17 08:26:45;;;;;;;1.43;1.33;;;;;;;-143.21;100.00;71461.47;5051454;28;20221;-77
2023/06/17 08:29:13;;;;;;;1.80;1.70;;;;;;;-143.21;100.00;71485.25;5058816;28;20305;-77
2023/06/17 08:31:39;;;;;;;1.67;1.57;;;;;;;-143.21;100.00;71487.25;5049259;28;20285;-77
2023/06/17 08:34:08;;;;;;;2.07;1.40;;;;;;;-143.21;100.00;71491.22;5048293;28;20245;-77
2023/06/17 08:36:34;;;;;;;1.93;1.70;;;;;;;-143.21;100.00;71501.13;5048266;28;20271;-78
2023/06/17 08:39:01;;;;;;;2.10;1.90;;;;;;;-143.21;100.00;71497.16;5056112;28;20202;-78
2023/06/17 08:41:30;;;;;;;2.77;2.00;;;;;;;-143.21;100.00;71487.25;5062148;28;20221;-79
2023/06/17 08:43:57;;;;;;;1.87;1.60;;;;;;;-143.21;100.00;71501.13;5051070;28;20197;-78
2023/06/17 08:46:25;;;;;;;2.57;2.00;;;;;;;-143.21;100.00;71509.06;5053232;28;20217;-78
2023/06/17 08:48:53;;;;;;;3.20;2.33;;;;;;;-143.21;100.00;71507.06;5048240;28;20202;-79
2023/06/17 08:51:22;;;;;;;2.70;2.13;;;;;;;-143.21;100.00;71509.06;5047103;28;20585;-80
2023/06/17 08:53:50;;;;;;;3.20;2.40;;;;;;;-143.21;100.00;71518.97;5055487;28;20201;-78
2023/06/17 08:56:17;;;;;;;2.70;2.20;;;;;;;-143.21;100.00;71520.94;5052042;28;20206;-79
2023/06/17 08:58:44;;;;;;;3.07;2.30;;;;;;;-143.21;100.00;71505.09;5057992;28;20213;-77
2023/06/17 09:01:12;;;;;;;2.93;2.53;;;;;;;-143.21;100.00;71507.06;5047707;28;20198;-77
2023/06/17 09:03:41;;;;;;;3.43;2.40;;;;;;;-143.21;100.00;71497.16;5048375;28;20206;-76
2023/06/17 09:06:17;;;;;;;2.73;2.53;;;;;;;-143.21;100.00;71493.19;5055143;28;20206;-78
2023/06/17 09:08:45;;;;;;;2.97;2.67;;;;;;;-143.21;100.00;71495.19;5057065;28;20221;-78
2023/06/17 09:11:12;;;;;;;4.53;2.27;;;;;;;-143.21;100.00;71497.16;5052610;28;20309;-78
2023/06/17 09:13:39;;;;;;;2.57;2.33;;;;;;;-143.21;100.00;71487.25;5061012;28;20205;-78
2023/06/17 09:16:06;;;;;;;4.53;2.60;;;;;;;-143.21;100.00;71491.22;5052072;28;20289;-79
2023/06/17 09:18:34;;;;;;;5.03;2.73;;;;;;;-143.21;100.00;71495.19;5049129;28;20202;-78
2023/06/17 09:21:02;;;;;;;2.57;2.23;;;;;;;-143.21;100.00;71487.25;5054629;28;20213;-79
2023/06/17 09:23:29;;;;;;;3.80;2.53;;;;;;;-143.21;100.00;71485.25;5054303;28;20209;-78
2023/06/17 09:26:04;;;;;;;3.87;2.70;;;;;;;-143.21;100.00;71487.25;5062703;28;20215;-78
2023/06/17 09:28:32;;;;;;;3.80;2.97;;;;;;;-143.21;100.00;71481.28;5058345;28;20212;-78
2023/06/17 09:30:59;;;;;;;3.67;3.37;;;;;;;-143.21;100.00;71477.34;5057180;28;20317;-78
2023/06/17 09:33:27;;;;;;;3.53;3.10;;;;;;;-143.21;100.00;71471.38;5051735;28;20793;-81
2023/06/17 09:36:01;;;;;;;4.00;2.80;;;;;;;-143.21;100.00;71461.47;5050772;28;20205;-82
2023/06/17 09:38:29;;;;;;;4.77;2.90;;;;;;;-143.21;100.00;71431.72;5055269;28;20652;-82
2023/06/17 09:40:55;;;;;;;4.10;3.70;;;;;;;-143.21;100.00;71398.03;5053348;28;20210;-81
2023/06/17 09:43:38;;;;;;;4.43;3.60;;;;;;;-143.21;100.00;71378.19;5055256;28;20303;-82
2023/06/17 09:46:06;;;;;;;8.40;6.30;;;;;;;-143.21;100.00;71340.53;5056522;28;20198;-79
2023/06/17 09:51:46;;;;;;;;;;;;;;;;;;;;;
2023/06/17 09:54:20;;;;;;;6.53;5.20;;;;;;;-143.21;97.98;71277.09;5052477;28;20206;-81
2023/06/17 09:56:52;;;;;;;4.00;3.33;;;;;;;-143.21;97.64;71265.19;5051978;28;20220;-82
2023/06/17 09:59:55;;;;;;;3.30;2.03;;;;;;;-143.21;94.53;71269.16;5059221;28;20205;-82
2023/06/17 10:02:29;;;;;;;3.37;2.30;;;;;;;-143.21;94.13;71267.19;5042012;28;20711;-81
2023/06/17 10:04:56;;;;;;;2.73;1.87;;;;;;;-143.21;93.54;71275.09;5058514;28;20279;-80
2023/06/17 10:07:33;;;;;;;2.03;1.70;;;;;;;-143.21;93.05;71285.03;5051172;28;20218;-80
2023/06/17 10:10:02;;;;;;;1.90;1.80;;;;;;;-143.21;94.92;71273.13;5051452;28;20214;-81
2023/06/17 10:12:33;;;;;;;3.00;2.27;;;;;;;-143.21;93.87;71269.16;5057370;28;20223;-81
2023/06/17 10:15:03;;;;;;;1.90;1.70;;;;;;;-143.21;92.94;71267.19;5051651;28;20669;-81
2023/06/17 10:17:33;;;;;;;3.55;2.00;;;;;;;-143.21;92.10;71265.19;5060985;28;20200;-81
2023/06/17 10:20:05;;;;;;;2.17;1.95;;;;;;;-143.21;92.13;71253.28;5058453;28;20203;-81
2023/06/17 10:22:37;;;;;;;3.65;2.05;;;;;;;-143.21;91.92;71243.38;5061385;28;20228;-81
2023/06/17 10:25:05;;;;;;;2.30;2.00;;;;;;;-143.21;92.26;71239.41;5049662;28;20672;-81
2023/06/17 10:27:33;;;;;;;2.40;1.80;;;;;;;-143.21;90.08;71251.31;5050877;28;20661;-81
2023/06/17 10:30:01;;;;;;;2.10;1.90;;;;;;;-143.21;90.45;71259.25;5054302;28;20226;-81
2023/06/17 10:32:28;;;;;;;3.28;2.20;;;;;;;-143.21;90.37;71269.16;5052556;28;20214;-81
2023/06/17 10:35:12;;;;;;;3.60;1.95;;;;;;;-143.21;91.24;71269.16;5052822;28;20241;-81
2023/06/17 10:37:41;;;;;;;2.53;2.23;;;;;;;-143.21;90.27;71275.09;5049868;28;20727;-80
2023/06/17 10:40:20;;;;;;;3.42;2.80;;;;;;;-143.21;91.39;71279.06;5050605;28;20209;-80
2023/06/17 10:42:54;;;;;;;3.23;2.50;;;;;;;-143.21;90.20;71277.09;5053045;28;20197;-80
2023/06/17 10:45:22;;;;;;;4.10;2.55;;;;;;;-143.21;91.15;71269.16;5054380;28;20205;-80
2023/06/17 10:47:49;;;;;;;2.50;2.30;;;;;;;-143.21;89.64;71277.09;5056029;28;20202;-81
2023/06/17 10:50:20;;;;;;;6.40;2.92;;;;;;;-143.21;89.74;71285.03;5056445;28;20229;-80
2023/06/17 10:52:47;;;;;;;4.37;3.00;;;;;;;-143.21;90.37;71300.88;5056036;28;20202;-80
2023/06/17 10:55:14;;;;;;;4.07;2.88;;;;;;;-143.21;90.51;71306.81;5058226;28;20198;-80
2023/06/17 10:57:41;;;;;;;4.93;2.83;;;;;;;-143.21;90.83;71314.75;5052738;28;20206;-80
2023/06/17 11:00:10;;;;;;;7.50;2.78;;;;;;;-143.21;90.94;71324.66;5053138;28;20669;-80
2023/06/17 11:02:39;;;;;;;5.22;2.80;;;;;;;-143.21;91.63;71336.56;5047593;28;20236;-80
2023/06/17 11:05:07;;;;;;;7.70;3.40;;;;;;;-143.21;92.37;71338.53;5056736;28;20226;-78
2023/06/17 11:07:38;;;;;;;3.40;3.10;;;;;;;-143.21;93.29;71354.41;5047293;28;20292;-79
2023/06/17 11:10:06;;;;;;;6.15;3.20;;;;;;;-143.21;93.86;71370.28;5063015;28;20217;-80
2023/06/17 11:12:34;;;;;;;3.60;3.30;;;;;;;-143.21;94.62;71384.16;5061491;28;20194;-81
2023/06/17 11:15:03;;;;;;;6.07;4.00;;;;;;;-143.21;95.78;71392.06;5062407;28;20191;-81
2023/06/17 11:17:33;;;;;;;4.43;3.80;;;;;;;-143.21;96.96;71417.84;5063259;28;20205;-81
2023/06/17 11:20:01;;;;;;;6.00;3.80;;;;;;;-143.21;97.28;71413.88;5053871;28;20209;-81